sensor_id;sensor_type;location;lat;lon;timestamp;P1;durP1;ratioP1;P2;durP2;ratioP2
19905;SDS011;10115;50.906;4.438;2022-12-07T00:01:09;4.70;;;4.47;;
19905;SDS011;10115;50.906;4.438;2022-12-07T00:03:41;7.53;;;6.00;;
19905;SDS011;10115;50.906;4.438;2022-12-07T00:06:08;5.50;;;5.20;;
19905;SDS011;10115;50.906;4.438;2022-12-07T00:08:35;7.37;;;6.67;;
19905;SDS011;10115;50.906;4.438;2022-12-07T00:11:05;5.40;;;5.10;;
19905;SDS011;10115;50.906;4.438;2022-12-07T00:13:33;6.37;;;5.63;;
19905;SDS011;10115;50.906;4.438;2022-12-07T00:16:07;7.83;;;7.13;;
19905;SDS011;10115;50.906;4.438;2022-12-07T00:18:35;5.67;;;5.27;;
19905;SDS011;10115;50.906;4.438;2022-12-07T00:21:02;9.40;;;8.43;;
19905;SDS011;10115;50.906;4.438;2022-12-07T00:23:28;7.67;;;7.07;;
19905;SDS011;10115;50.906;4.438;2022-12-07T00:25:54;8.33;;;7.03;;
19905;SDS011;10115;50.906;4.438;2022-12-07T00:28:20;12.57;;;8.43;;
19905;SDS011;10115;50.906;4.438;2022-12-07T00:30:46;7.87;;;7.17;;
19905;SDS011;10115;50.906;4.438;2022-12-07T00:33:12;18.60;;;9.63;;
19905;SDS011;10115;50.906;4.438;2022-12-07T00:35:37;8.50;;;7.80;;
19905;SDS011;10115;50.906;4.438;2022-12-07T00:38:03;8.27;;;6.77;;
19905;SDS011;10115;50.906;4.438;2022-12-07T00:40:29;5.97;;;5.47;;
19905;SDS011;10115;50.906;4.438;2022-12-07T00:42:54;7.87;;;7.13;;
19905;SDS011;10115;50.906;4.438;2022-12-07T00:45:20;9.53;;;8.67;;
19905;SDS011;10115;50.906;4.438;2022-12-07T00:47:45;10.20;;;9.13;;
19905;SDS011;10115;50.906;4.438;2022-12-07T00:50:11;11.73;;;9.33;;
19905;SDS011;10115;50.906;4.438;2022-12-07T00:52:37;11.03;;;7.53;;
19905;SDS011;10115;50.906;4.438;2022-12-07T00:55:02;9.00;;;7.43;;
19905;SDS011;10115;50.906;4.438;2022-12-07T00:57:29;11.00;;;8.43;;
19905;SDS011;10115;50.906;4.438;2022-12-07T00:59:56;12.73;;;8.20;;
19905;SDS011;10115;50.906;4.438;2022-12-07T01:02:22;7.13;;;6.53;;
19905;SDS011;10115;50.906;4.438;2022-12-07T01:04:48;9.00;;;8.13;;
19905;SDS011;10115;50.906;4.438;2022-12-07T01:07:14;9.33;;;8.40;;
19905;SDS011;10115;50.906;4.438;2022-12-07T01:09:40;13.40;;;9.00;;
19905;SDS011;10115;50.906;4.438;2022-12-07T01:12:05;8.90;;;8.03;;
19905;SDS011;10115;50.906;4.438;2022-12-07T01:14:31;9.13;;;8.33;;
19905;SDS011;10115;50.906;4.438;2022-12-07T01:16:57;6.30;;;5.77;;
19905;SDS011;10115;50.906;4.438;2022-12-07T01:19:22;7.70;;;7.03;;
19905;SDS011;10115;50.906;4.438;2022-12-07T01:21:48;9.57;;;8.53;;
19905;SDS011;10115;50.906;4.438;2022-12-07T01:24:13;9.63;;;8.77;;
19905;SDS011;10115;50.906;4.438;2022-12-07T01:26:39;12.57;;;7.10;;
19905;SDS011;10115;50.906;4.438;2022-12-07T01:29:06;10.87;;;5.97;;
19905;SDS011;10115;50.906;4.438;2022-12-07T01:31:31;6.97;;;6.20;;
19905;SDS011;10115;50.906;4.438;2022-12-07T01:33:58;9.37;;;8.43;;
19905;SDS011;10115;50.906;4.438;2022-12-07T01:36:32;7.67;;;7.07;;
19905;SDS011;10115;50.906;4.438;2022-12-07T01:39:00;4.97;;;4.67;;
19905;SDS011;10115;50.906;4.438;2022-12-07T01:41:30;12.97;;;8.83;;
19905;SDS011;10115;50.906;4.438;2022-12-07T01:46:40;5.20;;;4.90;;
19905;SDS011;10115;50.906;4.438;2022-12-07T01:49:15;5.97;;;5.43;;
19905;SDS011;10115;50.906;4.438;2022-12-07T01:51:51;10.60;;;8.87;;
19905;SDS011;10115;50.906;4.438;2022-12-07T01:54:20;10.97;;;9.87;;
19905;SDS011;10115;50.906;4.438;2022-12-07T01:56:49;9.93;;;7.50;;
19905;SDS011;10115;50.906;4.438;2022-12-07T01:59:18;8.10;;;7.27;;
19905;SDS011;10115;50.906;4.438;2022-12-07T02:01:46;11.67;;;7.30;;
19905;SDS011;10115;50.906;4.438;2022-12-07T02:04:12;9.63;;;8.33;;
19905;SDS011;10115;50.906;4.438;2022-12-07T02:06:38;10.07;;;7.80;;
19905;SDS011;10115;50.906;4.438;2022-12-07T02:09:04;8.77;;;7.77;;
19905;SDS011;10115;50.906;4.438;2022-12-07T02:11:29;10.73;;;8.50;;
19905;SDS011;10115;50.906;4.438;2022-12-07T02:13:55;12.63;;;8.63;;
19905;SDS011;10115;50.906;4.438;2022-12-07T02:16:31;6.97;;;6.30;;
19905;SDS011;10115;50.906;4.438;2022-12-07T02:22:01;10.30;;;7.87;;
19905;SDS011;10115;50.906;4.438;2022-12-07T02:24:58;9.27;;;8.37;;
19905;SDS011;10115;50.906;4.438;2022-12-07T02:27:45;8.23;;;7.50;;
19905;SDS011;10115;50.906;4.438;2022-12-07T02:30:14;9.87;;;8.23;;
19905;SDS011;10115;50.906;4.438;2022-12-07T02:32:54;8.73;;;7.93;;
19905;SDS011;10115;50.906;4.438;2022-12-07T02:38:26;6.90;;;6.27;;
19905;SDS011;10115;50.906;4.438;2022-12-07T02:40:55;12.77;;;8.57;;
19905;SDS011;10115;50.906;4.438;2022-12-07T02:43:40;10.70;;;7.83;;
19905;SDS011;10115;50.906;4.438;2022-12-07T02:46:11;8.50;;;7.77;;
19905;SDS011;10115;50.906;4.438;2022-12-07T02:48:45;14.37;;;9.30;;
19905;SDS011;10115;50.906;4.438;2022-12-07T02:51:11;12.33;;;7.47;;
19905;SDS011;10115;50.906;4.438;2022-12-07T02:53:41;8.93;;;7.00;;
19905;SDS011;10115;50.906;4.438;2022-12-07T03:16:08;9.97;;;7.73;;
19905;SDS011;10115;50.906;4.438;2022-12-07T03:18:39;8.50;;;7.83;;
19905;SDS011;10115;50.906;4.438;2022-12-07T03:21:11;8.87;;;7.97;;
19905;SDS011;10115;50.906;4.438;2022-12-07T03:23:41;8.37;;;7.63;;
19905;SDS011;10115;50.906;4.438;2022-12-07T03:26:10;8.00;;;7.30;;
19905;SDS011;10115;50.906;4.438;2022-12-07T03:28:39;8.63;;;7.57;;
19905;SDS011;10115;50.906;4.438;2022-12-07T03:31:31;9.90;;;8.13;;
19905;SDS011;10115;50.906;4.438;2022-12-07T03:34:06;8.20;;;7.50;;
19905;SDS011;10115;50.906;4.438;2022-12-07T03:36:40;7.83;;;7.23;;
19905;SDS011;10115;50.906;4.438;2022-12-07T03:42:00;10.07;;;8.60;;
19905;SDS011;10115;50.906;4.438;2022-12-07T03:44:29;8.10;;;6.87;;
19905;SDS011;10115;50.906;4.438;2022-12-07T03:47:01;13.23;;;8.33;;
19905;SDS011;10115;50.906;4.438;2022-12-07T03:49:45;7.77;;;7.13;;
19905;SDS011;10115;50.906;4.438;2022-12-07T03:55:28;8.17;;;7.33;;
19905;SDS011;10115;50.906;4.438;2022-12-07T03:57:58;8.40;;;7.13;;
19905;SDS011;10115;50.906;4.438;2022-12-07T04:00:28;10.57;;;8.97;;
19905;SDS011;10115;50.906;4.438;2022-12-07T04:02:54;7.93;;;7.33;;
19905;SDS011;10115;50.906;4.438;2022-12-07T04:05:20;9.67;;;7.73;;
19905;SDS011;10115;50.906;4.438;2022-12-07T04:07:46;9.60;;;7.33;;
19905;SDS011;10115;50.906;4.438;2022-12-07T04:10:12;7.87;;;7.13;;
19905;SDS011;10115;50.906;4.438;2022-12-07T04:12:38;6.13;;;5.63;;
19905;SDS011;10115;50.906;4.438;2022-12-07T04:15:04;7.60;;;6.93;;
19905;SDS011;10115;50.906;4.438;2022-12-07T04:17:30;7.73;;;7.03;;
19905;SDS011;10115;50.906;4.438;2022-12-07T04:19:56;6.70;;;6.20;;
19905;SDS011;10115;50.906;4.438;2022-12-07T04:22:22;8.23;;;7.53;;
19905;SDS011;10115;50.906;4.438;2022-12-07T04:24:47;10.67;;;7.67;;
19905;SDS011;10115;50.906;4.438;2022-12-07T04:27:13;10.43;;;8.43;;
19905;SDS011;10115;50.906;4.438;2022-12-07T04:29:39;10.47;;;8.27;;
19905;SDS011;10115;50.906;4.438;2022-12-07T04:32:04;9.17;;;7.70;;
19905;SDS011;10115;50.906;4.438;2022-12-07T04:34:30;6.40;;;5.87;;
19905;SDS011;10115;50.906;4.438;2022-12-07T04:36:56;9.80;;;7.47;;
19905;SDS011;10115;50.906;4.438;2022-12-07T04:39:23;7.93;;;7.23;;
19905;SDS011;10115;50.906;4.438;2022-12-07T04:41:53;8.07;;;7.37;;
19905;SDS011;10115;50.906;4.438;2022-12-07T04:44:20;6.20;;;5.67;;
19905;SDS011;10115;50.906;4.438;2022-12-07T04:46:46;9.77;;;8.80;;
19905;SDS011;10115;50.906;4.438;2022-12-07T04:49:13;8.83;;;8.03;;
19905;SDS011;10115;50.906;4.438;2022-12-07T04:51:40;4.80;;;4.53;;
19905;SDS011;10115;50.906;4.438;2022-12-07T04:54:07;11.20;;;8.80;;
19905;SDS011;10115;50.906;4.438;2022-12-07T04:56:32;5.43;;;5.03;;
19905;SDS011;10115;50.906;4.438;2022-12-07T04:59:00;10.47;;;7.13;;
19905;SDS011;10115;50.906;4.438;2022-12-07T05:01:26;8.70;;;6.90;;
19905;SDS011;10115;50.906;4.438;2022-12-07T05:03:52;8.33;;;7.57;;
19905;SDS011;10115;50.906;4.438;2022-12-07T05:06:18;7.30;;;6.43;;
19905;SDS011;10115;50.906;4.438;2022-12-07T05:08:44;5.73;;;5.23;;
19905;SDS011;10115;50.906;4.438;2022-12-07T05:11:10;6.03;;;5.63;;
19905;SDS011;10115;50.906;4.438;2022-12-07T05:14:00;15.20;;;6.37;;
19905;SDS011;10115;50.906;4.438;2022-12-07T05:16:27;6.77;;;5.80;;
19905;SDS011;10115;50.906;4.438;2022-12-07T05:18:53;7.50;;;6.67;;
19905;SDS011;10115;50.906;4.438;2022-12-07T05:21:18;8.83;;;8.10;;
19905;SDS011;10115;50.906;4.438;2022-12-07T05:23:44;8.67;;;7.87;;
19905;SDS011;10115;50.906;4.438;2022-12-07T05:26:10;5.07;;;4.80;;
19905;SDS011;10115;50.906;4.438;2022-12-07T05:28:35;7.17;;;6.47;;
19905;SDS011;10115;50.906;4.438;2022-12-07T05:31:01;5.57;;;5.03;;
19905;SDS011;10115;50.906;4.438;2022-12-07T05:33:27;8.17;;;6.87;;
19905;SDS011;10115;50.906;4.438;2022-12-07T05:35:53;8.60;;;7.80;;
19905;SDS011;10115;50.906;4.438;2022-12-07T05:38:18;9.70;;;6.90;;
19905;SDS011;10115;50.906;4.438;2022-12-07T05:40:44;6.87;;;6.20;;
19905;SDS011;10115;50.906;4.438;2022-12-07T05:43:10;10.10;;;9.20;;
19905;SDS011;10115;50.906;4.438;2022-12-07T05:45:35;8.47;;;7.57;;
19905;SDS011;10115;50.906;4.438;2022-12-07T05:48:01;10.00;;;7.33;;
19905;SDS011;10115;50.906;4.438;2022-12-07T05:50:27;7.33;;;6.60;;
19905;SDS011;10115;50.906;4.438;2022-12-07T05:52:53;7.40;;;6.33;;
19905;SDS011;10115;50.906;4.438;2022-12-07T05:55:19;8.03;;;7.33;;
19905;SDS011;10115;50.906;4.438;2022-12-07T05:57:45;3.60;;;3.50;;
19905;SDS011;10115;50.906;4.438;2022-12-07T06:00:30;6.10;;;5.40;;
19905;SDS011;10115;50.906;4.438;2022-12-07T06:02:56;7.90;;;7.17;;
19905;SDS011;10115;50.906;4.438;2022-12-07T06:05:22;6.30;;;5.90;;
19905;SDS011;10115;50.906;4.438;2022-12-07T06:07:48;7.47;;;6.80;;
19905;SDS011;10115;50.906;4.438;2022-12-07T06:10:14;9.13;;;8.27;;
19905;SDS011;10115;50.906;4.438;2022-12-07T06:12:40;14.33;;;7.23;;
19905;SDS011;10115;50.906;4.438;2022-12-07T06:15:08;9.07;;;8.17;;
19905;SDS011;10115;50.906;4.438;2022-12-07T06:17:35;8.50;;;7.67;;
19905;SDS011;10115;50.906;4.438;2022-12-07T06:20:01;9.37;;;7.63;;
19905;SDS011;10115;50.906;4.438;2022-12-07T06:22:27;6.33;;;5.63;;
19905;SDS011;10115;50.906;4.438;2022-12-07T06:24:53;11.20;;;7.23;;
19905;SDS011;10115;50.906;4.438;2022-12-07T06:27:18;11.33;;;8.17;;
19905;SDS011;10115;50.906;4.438;2022-12-07T06:29:44;7.53;;;6.93;;
19905;SDS011;10115;50.906;4.438;2022-12-07T06:32:10;8.93;;;8.00;;
19905;SDS011;10115;50.906;4.438;2022-12-07T06:34:37;16.53;;;8.27;;
19905;SDS011;10115;50.906;4.438;2022-12-07T06:37:02;5.87;;;5.37;;
19905;SDS011;10115;50.906;4.438;2022-12-07T06:39:28;5.97;;;5.47;;
19905;SDS011;10115;50.906;4.438;2022-12-07T06:41:54;5.70;;;5.30;;
19905;SDS011;10115;50.906;4.438;2022-12-07T06:44:21;9.23;;;6.80;;
19905;SDS011;10115;50.906;4.438;2022-12-07T06:46:47;7.07;;;6.50;;
19905;SDS011;10115;50.906;4.438;2022-12-07T06:49:13;5.13;;;4.80;;
19905;SDS011;10115;50.906;4.438;2022-12-07T06:51:39;10.23;;;5.73;;
19905;SDS011;10115;50.906;4.438;2022-12-07T06:54:08;11.03;;;6.00;;
19905;SDS011;10115;50.906;4.438;2022-12-07T06:56:38;13.50;;;7.53;;
19905;SDS011;10115;50.906;4.438;2022-12-07T06:59:05;8.10;;;7.30;;
19905;SDS011;10115;50.906;4.438;2022-12-07T07:01:32;9.20;;;6.87;;
19905;SDS011;10115;50.906;4.438;2022-12-07T07:03:59;7.23;;;5.83;;
19905;SDS011;10115;50.906;4.438;2022-12-07T07:06:25;8.07;;;6.87;;
19905;SDS011;10115;50.906;4.438;2022-12-07T07:08:51;8.43;;;7.73;;
19905;SDS011;10115;50.906;4.438;2022-12-07T07:11:17;6.50;;;6.07;;
19905;SDS011;10115;50.906;4.438;2022-12-07T07:13:43;9.63;;;7.73;;
19905;SDS011;10115;50.906;4.438;2022-12-07T07:16:10;11.87;;;7.80;;
19905;SDS011;10115;50.906;4.438;2022-12-07T07:18:35;8.33;;;7.63;;
19905;SDS011;10115;50.906;4.438;2022-12-07T07:21:02;7.97;;;6.87;;
19905;SDS011;10115;50.906;4.438;2022-12-07T07:23:28;11.33;;;8.53;;
19905;SDS011;10115;50.906;4.438;2022-12-07T07:25:54;5.97;;;5.57;;
19905;SDS011;10115;50.906;4.438;2022-12-07T07:28:19;8.10;;;7.37;;
19905;SDS011;10115;50.906;4.438;2022-12-07T07:30:45;4.87;;;4.53;;
19905;SDS011;10115;50.906;4.438;2022-12-07T07:33:11;7.47;;;6.83;;
19905;SDS011;10115;50.906;4.438;2022-12-07T07:35:38;8.30;;;7.47;;
19905;SDS011;10115;50.906;4.438;2022-12-07T07:38:04;7.37;;;6.63;;
19905;SDS011;10115;50.906;4.438;2022-12-07T07:40:30;4.67;;;4.37;;
19905;SDS011;10115;50.906;4.438;2022-12-07T07:42:56;8.10;;;7.30;;
19905;SDS011;10115;50.906;4.438;2022-12-07T07:45:22;12.60;;;8.70;;
19905;SDS011;10115;50.906;4.438;2022-12-07T07:47:50;7.03;;;5.63;;
19905;SDS011;10115;50.906;4.438;2022-12-07T07:50:16;11.10;;;8.87;;
19905;SDS011;10115;50.906;4.438;2022-12-07T07:52:43;9.67;;;8.67;;
19905;SDS011;10115;50.906;4.438;2022-12-07T07:55:09;11.03;;;7.03;;
19905;SDS011;10115;50.906;4.438;2022-12-07T07:57:35;8.70;;;6.93;;
19905;SDS011;10115;50.906;4.438;2022-12-07T08:00:12;8.23;;;6.20;;
19905;SDS011;10115;50.906;4.438;2022-12-07T08:02:39;6.57;;;6.13;;
19905;SDS011;10115;50.906;4.438;2022-12-07T08:05:05;9.17;;;8.10;;
19905;SDS011;10115;50.906;4.438;2022-12-07T08:07:32;5.37;;;4.97;;
19905;SDS011;10115;50.906;4.438;2022-12-07T08:09:57;8.53;;;7.73;;
19905;SDS011;10115;50.906;4.438;2022-12-07T08:12:23;9.33;;;7.37;;
19905;SDS011;10115;50.906;4.438;2022-12-07T08:14:49;8.60;;;7.63;;
19905;SDS011;10115;50.906;4.438;2022-12-07T08:17:15;7.40;;;6.70;;
19905;SDS011;10115;50.906;4.438;2022-12-07T08:19:41;15.13;;;8.57;;
19905;SDS011;10115;50.906;4.438;2022-12-07T08:22:07;8.23;;;5.73;;
19905;SDS011;10115;50.906;4.438;2022-12-07T08:24:33;17.43;;;9.70;;
19905;SDS011;10115;50.906;4.438;2022-12-07T08:26:59;17.07;;;9.27;;
19905;SDS011;10115;50.906;4.438;2022-12-07T08:29:25;7.07;;;6.40;;
19905;SDS011;10115;50.906;4.438;2022-12-07T08:31:51;8.37;;;5.53;;
19905;SDS011;10115;50.906;4.438;2022-12-07T08:34:16;7.83;;;7.17;;
19905;SDS011;10115;50.906;4.438;2022-12-07T08:36:42;8.13;;;7.30;;
19905;SDS011;10115;50.906;4.438;2022-12-07T08:39:08;7.87;;;7.10;;
19905;SDS011;10115;50.906;4.438;2022-12-07T08:41:33;6.93;;;6.30;;
19905;SDS011;10115;50.906;4.438;2022-12-07T08:43:59;5.63;;;5.23;;
19905;SDS011;10115;50.906;4.438;2022-12-07T08:46:26;8.77;;;6.50;;
19905;SDS011;10115;50.906;4.438;2022-12-07T08:49:02;6.07;;;5.67;;
19905;SDS011;10115;50.906;4.438;2022-12-07T08:51:37;13.43;;;6.57;;
19905;SDS011;10115;50.906;4.438;2022-12-07T08:54:04;5.40;;;5.10;;
19905;SDS011;10115;50.906;4.438;2022-12-07T08:56:32;8.87;;;7.67;;
19905;SDS011;10115;50.906;4.438;2022-12-07T08:58:59;10.77;;;5.57;;
19905;SDS011;10115;50.906;4.438;2022-12-07T09:01:25;11.40;;;8.37;;
19905;SDS011;10115;50.906;4.438;2022-12-07T09:03:50;5.97;;;5.47;;
19905;SDS011;10115;50.906;4.438;2022-12-07T09:06:16;7.27;;;6.63;;
19905;SDS011;10115;50.906;4.438;2022-12-07T09:08:43;8.97;;;7.13;;
19905;SDS011;10115;50.906;4.438;2022-12-07T09:11:13;8.50;;;7.70;;
19905;SDS011;10115;50.906;4.438;2022-12-07T09:13:38;7.40;;;6.77;;
19905;SDS011;10115;50.906;4.438;2022-12-07T09:16:04;10.57;;;8.00;;
19905;SDS011;10115;50.906;4.438;2022-12-07T09:18:30;10.47;;;7.73;;
19905;SDS011;10115;50.906;4.438;2022-12-07T09:20:56;6.13;;;5.60;;
19905;SDS011;10115;50.906;4.438;2022-12-07T09:23:22;13.53;;;8.27;;
19905;SDS011;10115;50.906;4.438;2022-12-07T09:25:48;8.43;;;7.63;;
19905;SDS011;10115;50.906;4.438;2022-12-07T09:28:13;5.03;;;4.57;;
19905;SDS011;10115;50.906;4.438;2022-12-07T09:30:44;6.67;;;5.97;;
19905;SDS011;10115;50.906;4.438;2022-12-07T09:33:13;5.73;;;5.33;;
19905;SDS011;10115;50.906;4.438;2022-12-07T09:35:46;17.37;;;7.37;;
19905;SDS011;10115;50.906;4.438;2022-12-07T09:38:12;10.90;;;8.53;;
19905;SDS011;10115;50.906;4.438;2022-12-07T09:40:38;8.13;;;7.20;;
19905;SDS011;10115;50.906;4.438;2022-12-07T09:43:08;6.97;;;6.33;;
19905;SDS011;10115;50.906;4.438;2022-12-07T09:45:39;7.40;;;6.73;;
19905;SDS011;10115;50.906;4.438;2022-12-07T09:48:04;15.90;;;8.90;;
19905;SDS011;10115;50.906;4.438;2022-12-07T09:50:33;8.20;;;7.17;;
19905;SDS011;10115;50.906;4.438;2022-12-07T09:53:10;8.17;;;6.90;;
19905;SDS011;10115;50.906;4.438;2022-12-07T09:55:58;7.53;;;6.83;;
19905;SDS011;10115;50.906;4.438;2022-12-07T09:58:25;8.17;;;7.00;;
19905;SDS011;10115;50.906;4.438;2022-12-07T10:01:09;9.07;;;7.63;;
19905;SDS011;10115;50.906;4.438;2022-12-07T10:03:37;11.23;;;6.97;;
19905;SDS011;10115;50.906;4.438;2022-12-07T10:06:05;7.30;;;6.57;;
19905;SDS011;10115;50.906;4.438;2022-12-07T10:08:32;9.20;;;8.17;;
19905;SDS011;10115;50.906;4.438;2022-12-07T10:10:59;6.67;;;6.07;;
19905;SDS011;10115;50.906;4.438;2022-12-07T10:13:38;13.70;;;7.70;;
19905;SDS011;10115;50.906;4.438;2022-12-07T10:16:05;8.03;;;7.30;;
19905;SDS011;10115;50.906;4.438;2022-12-07T10:18:36;4.23;;;4.00;;
19905;SDS011;10115;50.906;4.438;2022-12-07T10:23:41;8.70;;;6.57;;
19905;SDS011;10115;50.906;4.438;2022-12-07T10:26:28;7.00;;;6.47;;
19905;SDS011;10115;50.906;4.438;2022-12-07T10:28:54;6.57;;;5.97;;
19905;SDS011;10115;50.906;4.438;2022-12-07T10:31:23;6.73;;;6.17;;
19905;SDS011;10115;50.906;4.438;2022-12-07T10:33:53;6.33;;;5.83;;
19905;SDS011;10115;50.906;4.438;2022-12-07T10:36:24;13.80;;;6.63;;
19905;SDS011;10115;50.906;4.438;2022-12-07T10:44:26;7.37;;;6.77;;
19905;SDS011;10115;50.906;4.438;2022-12-07T11:04:10;5.03;;;4.73;;
19905;SDS011;10115;50.906;4.438;2022-12-07T11:07:14;7.17;;;6.47;;
19905;SDS011;10115;50.906;4.438;2022-12-07T11:15:29;5.03;;;4.73;;
19905;SDS011;10115;50.906;4.438;2022-12-07T11:25:53;7.30;;;6.60;;
19905;SDS011;10115;50.906;4.438;2022-12-07T11:28:33;6.00;;;5.17;;
19905;SDS011;10115;50.906;4.438;2022-12-07T11:31:18;6.03;;;5.50;;
19905;SDS011;10115;50.906;4.438;2022-12-07T11:34:08;5.93;;;5.53;;
19905;SDS011;10115;50.906;4.438;2022-12-07T11:36:51;5.83;;;5.43;;
19905;SDS011;10115;50.906;4.438;2022-12-07T11:39:30;6.40;;;5.93;;
19905;SDS011;10115;50.906;4.438;2022-12-07T11:42:11;9.83;;;7.83;;
19905;SDS011;10115;50.906;4.438;2022-12-07T11:44:51;9.77;;;4.07;;
19905;SDS011;10115;50.906;4.438;2022-12-07T11:47:22;4.23;;;3.97;;
19905;SDS011;10115;50.906;4.438;2022-12-07T11:50:03;6.57;;;5.93;;
19905;SDS011;10115;50.906;4.438;2022-12-07T11:52:48;4.70;;;4.40;;
19905;SDS011;10115;50.906;4.438;2022-12-07T11:55:40;4.53;;;4.30;;
19905;SDS011;10115;50.906;4.438;2022-12-07T11:58:14;4.63;;;4.30;;
19905;SDS011;10115;50.906;4.438;2022-12-07T12:03:53;7.40;;;5.33;;
19905;SDS011;10115;50.906;4.438;2022-12-07T12:06:22;8.77;;;4.80;;
19905;SDS011;10115;50.906;4.438;2022-12-07T12:08:54;4.73;;;4.43;;
19905;SDS011;10115;50.906;4.438;2022-12-07T12:22:42;5.53;;;5.00;;
19905;SDS011;10115;50.906;4.438;2022-12-07T12:26:03;5.70;;;5.33;;
19905;SDS011;10115;50.906;4.438;2022-12-07T12:28:24;4.93;;;4.63;;
19905;SDS011;10115;50.906;4.438;2022-12-07T12:33:36;4.80;;;4.47;;
19905;SDS011;10115;50.906;4.438;2022-12-07T12:36:42;5.70;;;5.20;;
19905;SDS011;10115;50.906;4.438;2022-12-07T12:51:57;7.70;;;5.33;;
19905;SDS011;10115;50.906;4.438;2022-12-07T12:54:25;4.80;;;4.47;;
19905;SDS011;10115;50.906;4.438;2022-12-07T12:57:00;3.60;;;3.50;;
19905;SDS011;10115;50.906;4.438;2022-12-07T12:59:58;4.13;;;3.87;;
19905;SDS011;10115;50.906;4.438;2022-12-07T13:02:37;3.73;;;3.63;;
19905;SDS011;10115;50.906;4.438;2022-12-07T13:10:21;6.77;;;4.57;;
19905;SDS011;10115;50.906;4.438;2022-12-07T13:15:46;4.63;;;4.37;;
19905;SDS011;10115;50.906;4.438;2022-12-07T13:20:56;4.10;;;3.90;;
19905;SDS011;10115;50.906;4.438;2022-12-07T13:29:09;5.43;;;5.03;;
19905;SDS011;10115;50.906;4.438;2022-12-07T13:31:48;4.10;;;3.90;;
19905;SDS011;10115;50.906;4.438;2022-12-07T13:34:30;3.70;;;3.50;;
19905;SDS011;10115;50.906;4.438;2022-12-07T13:37:19;4.27;;;4.07;;
19905;SDS011;10115;50.906;4.438;2022-12-07T13:39:58;7.87;;;3.83;;
19905;SDS011;10115;50.906;4.438;2022-12-07T13:42:30;7.30;;;4.13;;
19905;SDS011;10115;50.906;4.438;2022-12-07T13:44:58;4.63;;;4.20;;
19905;SDS011;10115;50.906;4.438;2022-12-07T13:49:52;4.30;;;4.00;;
19905;SDS011;10115;50.906;4.438;2022-12-07T13:57:21;3.70;;;3.50;;
19905;SDS011;10115;50.906;4.438;2022-12-07T13:59:49;3.40;;;3.30;;
19905;SDS011;10115;50.906;4.438;2022-12-07T14:05:33;3.50;;;3.40;;
19905;SDS011;10115;50.906;4.438;2022-12-07T14:16:27;3.30;;;3.20;;
19905;SDS011;10115;50.906;4.438;2022-12-07T14:19:00;8.07;;;3.80;;
19905;SDS011;10115;50.906;4.438;2022-12-07T14:21:33;8.00;;;4.50;;
19905;SDS011;10115;50.906;4.438;2022-12-07T14:24:07;4.07;;;3.73;;
19905;SDS011;10115;50.906;4.438;2022-12-07T14:26:40;4.97;;;4.60;;
19905;SDS011;10115;50.906;4.438;2022-12-07T14:29:19;3.87;;;3.63;;
19905;SDS011;10115;50.906;4.438;2022-12-07T14:31:55;3.83;;;3.63;;
19905;SDS011;10115;50.906;4.438;2022-12-07T14:34:22;3.30;;;3.20;;
19905;SDS011;10115;50.906;4.438;2022-12-07T14:36:48;4.17;;;3.87;;
19905;SDS011;10115;50.906;4.438;2022-12-07T14:39:14;3.83;;;3.63;;
19905;SDS011;10115;50.906;4.438;2022-12-07T14:41:42;4.23;;;4.03;;
19905;SDS011;10115;50.906;4.438;2022-12-07T14:44:17;4.23;;;4.03;;
19905;SDS011;10115;50.906;4.438;2022-12-07T14:46:49;8.37;;;6.03;;
19905;SDS011;10115;50.906;4.438;2022-12-07T14:49:17;3.87;;;3.67;;
19905;SDS011;10115;50.906;4.438;2022-12-07T14:51:43;4.10;;;3.90;;
19905;SDS011;10115;50.906;4.438;2022-12-07T14:54:16;4.80;;;4.13;;
19905;SDS011;10115;50.906;4.438;2022-12-07T14:56:43;5.63;;;4.80;;
19905;SDS011;10115;50.906;4.438;2022-12-07T14:59:11;5.30;;;4.90;;
19905;SDS011;10115;50.906;4.438;2022-12-07T15:01:37;5.17;;;4.77;;
19905;SDS011;10115;50.906;4.438;2022-12-07T15:04:03;4.90;;;4.47;;
19905;SDS011;10115;50.906;4.438;2022-12-07T15:06:29;4.07;;;3.87;;
19905;SDS011;10115;50.906;4.438;2022-12-07T15:08:55;4.13;;;3.93;;
19905;SDS011;10115;50.906;4.438;2022-12-07T15:11:21;4.60;;;4.10;;
19905;SDS011;10115;50.906;4.438;2022-12-07T15:13:47;5.20;;;4.70;;
19905;SDS011;10115;50.906;4.438;2022-12-07T15:16:31;4.70;;;4.40;;
19905;SDS011;10115;50.906;4.438;2022-12-07T15:18:57;5.03;;;4.63;;
19905;SDS011;10115;50.906;4.438;2022-12-07T15:21:23;6.23;;;4.93;;
19905;SDS011;10115;50.906;4.438;2022-12-07T15:23:49;5.23;;;4.73;;
19905;SDS011;10115;50.906;4.438;2022-12-07T15:26:14;4.63;;;4.33;;
19905;SDS011;10115;50.906;4.438;2022-12-07T15:28:41;6.00;;;4.70;;
19905;SDS011;10115;50.906;4.438;2022-12-07T15:31:13;4.70;;;4.40;;
19905;SDS011;10115;50.906;4.438;2022-12-07T15:33:41;4.17;;;3.97;;
19905;SDS011;10115;50.906;4.438;2022-12-07T15:36:07;4.97;;;4.07;;
19905;SDS011;10115;50.906;4.438;2022-12-07T15:38:34;5.27;;;4.87;;
19905;SDS011;10115;50.906;4.438;2022-12-07T15:41:00;5.10;;;4.67;;
19905;SDS011;10115;50.906;4.438;2022-12-07T15:43:26;5.03;;;4.63;;
19905;SDS011;10115;50.906;4.438;2022-12-07T15:46:11;3.63;;;3.47;;
19905;SDS011;10115;50.906;4.438;2022-12-07T15:48:37;4.07;;;3.80;;
19905;SDS011;10115;50.906;4.438;2022-12-07T15:51:07;3.63;;;3.53;;
19905;SDS011;10115;50.906;4.438;2022-12-07T15:53:34;6.57;;;5.53;;
19905;SDS011;10115;50.906;4.438;2022-12-07T15:56:00;5.43;;;4.97;;
19905;SDS011;10115;50.906;4.438;2022-12-07T15:58:30;3.40;;;3.30;;
19905;SDS011;10115;50.906;4.438;2022-12-07T16:00:56;4.83;;;4.43;;
19905;SDS011;10115;50.906;4.438;2022-12-07T16:03:22;5.10;;;4.80;;
19905;SDS011;10115;50.906;4.438;2022-12-07T16:05:48;3.57;;;3.40;;
19905;SDS011;10115;50.906;4.438;2022-12-07T16:08:15;16.00;;;4.53;;
19905;SDS011;10115;50.906;4.438;2022-12-07T16:10:40;8.47;;;4.77;;
19905;SDS011;10115;50.906;4.438;2022-12-07T16:13:09;3.93;;;3.73;;
19905;SDS011;10115;50.906;4.438;2022-12-07T16:15:41;3.83;;;3.53;;
19905;SDS011;10115;50.906;4.438;2022-12-07T16:18:08;5.13;;;4.63;;
19905;SDS011;10115;50.906;4.438;2022-12-07T16:20:34;4.30;;;3.93;;
19905;SDS011;10115;50.906;4.438;2022-12-07T16:23:00;3.70;;;3.50;;
19905;SDS011;10115;50.906;4.438;2022-12-07T16:25:26;4.77;;;4.47;;
19905;SDS011;10115;50.906;4.438;2022-12-07T16:27:52;4.17;;;3.90;;
19905;SDS011;10115;50.906;4.438;2022-12-07T16:30:19;4.43;;;4.13;;
19905;SDS011;10115;50.906;4.438;2022-12-07T16:32:45;5.00;;;4.60;;
19905;SDS011;10115;50.906;4.438;2022-12-07T16:35:11;5.10;;;4.60;;
19905;SDS011;10115;50.906;4.438;2022-12-07T16:37:43;4.40;;;4.07;;
19905;SDS011;10115;50.906;4.438;2022-12-07T16:40:09;16.47;;;4.63;;
19905;SDS011;10115;50.906;4.438;2022-12-07T16:42:35;4.20;;;3.80;;
19905;SDS011;10115;50.906;4.438;2022-12-07T16:45:01;4.63;;;4.33;;
19905;SDS011;10115;50.906;4.438;2022-12-07T16:47:28;4.93;;;4.63;;
19905;SDS011;10115;50.906;4.438;2022-12-07T16:49:54;5.30;;;4.70;;
19905;SDS011;10115;50.906;4.438;2022-12-07T16:52:20;4.63;;;4.33;;
19905;SDS011;10115;50.906;4.438;2022-12-07T16:54:46;6.37;;;5.10;;
19905;SDS011;10115;50.906;4.438;2022-12-07T16:57:14;4.83;;;4.40;;
19905;SDS011;10115;50.906;4.438;2022-12-07T16:59:40;5.90;;;5.50;;
19905;SDS011;10115;50.906;4.438;2022-12-07T17:02:06;5.07;;;4.73;;
19905;SDS011;10115;50.906;4.438;2022-12-07T17:04:33;5.90;;;4.73;;
19905;SDS011;10115;50.906;4.438;2022-12-07T17:06:59;3.87;;;3.67;;
19905;SDS011;10115;50.906;4.438;2022-12-07T17:09:25;6.77;;;4.70;;
19905;SDS011;10115;50.906;4.438;2022-12-07T17:11:51;5.63;;;5.23;;
19905;SDS011;10115;50.906;4.438;2022-12-07T17:14:17;4.40;;;4.13;;
19905;SDS011;10115;50.906;4.438;2022-12-07T17:17:01;4.33;;;4.13;;